Time;durP1;ratioP1;P1;durP2;ratioP2;P2;SDS_P1;SDS_P2;PMS_P1;PMS_P2;Temp;Humidity;BMP_temperature;BMP_pressure;BME280_temperature;BME280_humidity;BME280_pressure;Samples;Min_cycle;Max_cycle;Signal;HPM_P1;HPM_P2
2021/07/19 00:01:45;;;;;;;11.38;9.38;;;;;;;32.16;50.45;100718.64;1617876;88;21054;-49
2021/07/19 00:04:11;;;;;;;12.63;9.65;;;;;;;32.18;49.91;100711.73;1640800;86;21084;-50
2021/07/19 00:06:38;;;;;;;11.57;8.58;;;;;;;32.20;49.65;100715.09;1631852;87;21071;-49
2021/07/19 00:09:05;;;;;;;14.38;9.60;;;;;;;32.22;49.43;100715.76;1637455;86;21063;-47
2021/07/19 00:11:33;;;;;;;13.20;8.68;;;;;;;32.23;49.27;100716.11;1636850;86;21523;-48
2021/07/19 00:14:02;;;;;;;10.75;8.48;;;;;;;32.23;49.35;100717.45;1639286;86;21548;-50
2021/07/19 00:16:30;;;;;;;12.75;8.90;;;;;;;32.22;49.54;100717.11;1637349;86;21071;-47
2021/07/19 00:18:57;;;;;;;14.18;10.20;;;;;;;32.22;49.83;100718.45;1637599;86;21103;-50
2021/07/19 00:21:27;;;;;;;12.05;8.90;;;;;;;32.20;49.97;100716.44;1627232;86;21034;-46
2021/07/19 00:23:54;;;;;;;11.75;8.70;;;;;;;32.19;50.04;100716.13;1623570;87;21038;-49
2021/07/19 00:26:22;;;;;;;13.90;8.68;;;;;;;32.18;50.12;100716.62;1616351;88;21081;-48
2021/07/19 00:28:49;;;;;;;14.07;8.95;;;;;;;32.18;50.22;100714.43;1625108;87;21029;-49
2021/07/19 00:31:18;;;;;;;11.10;8.93;;;;;;;32.18;50.17;100710.39;1629883;87;21067;-49
2021/07/19 00:33:47;;;;;;;9.95;8.85;;;;;;;32.18;50.42;100707.70;1639905;86;21052;-51
2021/07/19 00:36:14;;;;;;;12.55;9.43;;;;;;;32.19;50.57;100709.39;1641646;86;21044;-52
2021/07/19 00:38:41;;;;;;;10.20;9.10;;;;;;;32.18;50.38;100710.39;1640291;87;21040;-49
2021/07/19 00:41:07;;;;;;;11.93;9.10;;;;;;;32.19;50.31;100713.43;1638680;87;21183;-49
2021/07/19 00:43:35;;;;;;;11.40;9.23;;;;;;;32.18;50.24;100715.77;1637082;87;21034;-52
2021/07/19 00:46:02;;;;;;;13.58;8.63;;;;;;;32.18;50.33;100711.73;1642913;87;21157;-48
2021/07/19 00:48:28;;;;;;;13.43;9.28;;;;;;;32.17;50.45;100714.11;1640096;86;21040;-49
2021/07/19 00:50:55;;;;;;;9.48;8.68;;;;;;;32.19;50.36;100716.13;1638267;87;21068;-50
2021/07/19 00:53:22;;;;;;;10.03;9.03;;;;;;;32.19;50.44;100716.13;1640525;87;21698;-49
2021/07/19 00:55:50;;;;;;;12.58;8.50;;;;;;;32.20;50.41;100716.44;1636878;87;21087;-48
2021/07/19 00:58:17;;;;;;;32.13;10.80;;;;;;;32.22;50.35;100717.11;1638661;86;21106;-47
2021/07/19 01:00:48;;;;;;;11.70;9.00;;;;;;;32.22;50.24;100719.80;1623976;86;21136;-49
2021/07/19 01:03:17;;;;;;;14.55;9.28;;;;;;;32.23;50.24;100721.49;1583289;88;21024;-47
2021/07/19 01:05:45;;;;;;;11.28;8.68;;;;;;;32.24;50.28;100725.85;1614723;87;21550;-47
2021/07/19 01:08:13;;;;;;;10.25;8.85;;;;;;;32.24;50.11;100725.85;1639574;86;21048;-48
2021/07/19 01:10:41;;;;;;;10.68;8.73;;;;;;;32.23;50.13;100718.80;1637174;87;21547;-47
2021/07/19 01:13:08;;;;;;;12.28;8.80;;;;;;;32.24;50.33;100720.47;1638901;87;21071;-50
2021/07/19 01:15:38;;;;;;;12.33;9.23;;;;;;;32.25;50.46;100724.85;1642257;86;21082;-48
2021/07/19 01:18:06;;;;;;;15.95;8.78;;;;;;;32.25;50.05;100726.20;1639784;87;21527;-51
2021/07/19 01:20:51;;;;;;;12.95;8.33;;;;;;;32.25;49.80;100718.13;1634826;87;21092;-49
2021/07/19 01:23:41;;;;;;;11.38;8.40;;;;;;;32.24;49.81;100721.81;1634553;87;21008;-49
2021/07/19 01:26:18;;;;;;;15.13;8.90;;;;;;;32.24;49.70;100723.16;1640470;87;21040;-50
2021/07/19 01:28:49;;;;;;;9.80;8.20;;;;;;;32.24;49.71;100719.97;1642270;87;21040;-47
2021/07/19 01:31:26;;;;;;;13.25;8.80;;;;;;;32.22;49.56;100731.42;1602181;88;21631;-48
2021/07/19 01:34:01;;;;;;;9.30;8.23;;;;;;;32.22;49.53;100719.80;1637207;87;21071;-50
2021/07/19 01:36:32;;;;;;;13.05;7.67;;;;;;;32.19;49.18;100717.47;1621034;86;21080;-49
2021/07/19 01:39:15;;;;;;;8.80;7.90;;;;;;;32.16;48.84;100723.19;1641196;86;21044;-47
2021/07/19 01:41:42;;;;;;;9.65;8.13;;;;;;;32.12;48.59;100721.85;1640202;86;21012;-50
2021/07/19 01:44:09;;;;;;;9.95;7.67;;;;;;;32.09;48.39;100721.19;1613300;87;21511;-49
2021/07/19 01:46:37;;;;;;;12.20;8.65;;;;;;;32.06;48.34;100724.23;1612314;87;21106;-48
2021/07/19 01:49:05;;;;;;;10.35;8.43;;;;;;;32.02;48.75;100716.67;1604100;88;21094;-47
2021/07/19 01:51:32;;;;;;;12.03;8.58;;;;;;;32.01;48.96;100717.66;1573531;88;21088;-51
2021/07/19 01:53:59;;;;;;;14.78;8.63;;;;;;;31.99;49.41;100715.16;1633152;87;21138;-50
2021/07/19 01:56:27;;;;;;;13.15;8.35;;;;;;;31.98;49.50;100718.03;1631075;87;21030;-48
2021/07/19 01:58:59;;;;;;;8.48;7.70;;;;;;;31.98;49.80;100713.46;1639014;87;21040;-47
2021/07/19 02:01:27;;;;;;;13.55;8.90;;;;;;;31.97;50.14;100715.84;1570244;89;21089;-49
2021/07/19 02:03:55;;;;;;;9.78;8.78;;;;;;;31.99;49.94;100721.89;1583100;87;21130;-47
2021/07/19 02:06:22;;;;;;;14.58;9.30;;;;;;;31.99;49.97;100723.23;1639794;87;21024;-49
2021/07/19 02:08:53;;;;;;;10.15;8.63;;;;;;;32.01;50.70;100725.74;1638331;86;21571;-48
2021/07/19 02:11:27;;;;;;;14.05;8.45;;;;;;;32.01;51.37;100727.94;1631066;86;21067;-48
2021/07/19 02:13:54;;;;;;;12.95;8.78;;;;;;;32.02;51.56;100724.75;1637938;87;21004;-49
2021/07/19 02:16:22;;;;;;;11.75;8.70;;;;;;;32.00;51.53;100730.31;1621831;87;21044;-49
2021/07/19 02:18:49;;;;;;;11.85;9.35;;;;;;;32.01;51.80;100729.78;1636298;87;21040;-48
2021/07/19 02:21:23;;;;;;;15.75;9.08;;;;;;;31.99;51.99;100729.96;1619708;87;21492;-50
2021/07/19 02:23:47;;;;;;;11.22;8.53;;;;;;;31.98;52.32;100727.45;1594335;87;21184;-50
2021/07/19 02:26:16;;;;;;;9.70;8.80;;;;;;;31.98;52.32;100727.45;1609475;88;21113;-49
2021/07/19 02:28:43;;;;;;;15.15;9.35;;;;;;;31.98;52.55;100728.80;1616433;87;21081;-49
2021/07/19 02:31:11;;;;;;;11.08;8.23;;;;;;;31.96;51.90;100731.63;1616505;88;21046;-48
2021/07/19 02:33:39;;;;;;;15.88;8.85;;;;;;;31.95;51.47;100728.63;1597726;88;21031;-51
2021/07/19 02:36:08;;;;;;;12.00;8.63;;;;;;;31.95;50.88;100730.47;1616329;88;21070;-47
2021/07/19 02:38:36;;;;;;;12.82;8.48;;;;;;;31.94;50.50;100730.97;1579792;89;21105;-51
2021/07/19 02:41:05;;;;;;;13.88;8.45;;;;;;;31.93;49.76;100738.72;1592542;88;21095;-47
2021/07/19 02:43:32;;;;;;;12.63;9.03;;;;;;;31.91;49.77;100736.67;1618935;88;21779;-49
2021/07/19 02:46:01;;;;;;;9.50;8.43;;;;;;;31.90;49.89;100734.98;1588933;89;21079;-49
2021/07/19 02:48:29;;;;;;;9.70;8.55;;;;;;;31.87;49.61;100733.98;1611611;88;21530;-50
2021/07/19 02:50:59;;;;;;;10.63;9.45;;;;;;;31.85;49.39;100742.74;1591078;89;21137;-49
2021/07/19 02:53:34;;;;;;;11.95;8.85;;;;;;;31.82;49.36;100743.06;1621646;87;21130;-52
2021/07/19 02:56:00;;;;;;;10.82;8.05;;;;;;;31.80;49.24;100738.89;1589188;88;21050;-48
2021/07/19 02:58:29;;;;;;;10.28;9.13;;;;;;;31.78;49.42;100736.34;1594404;89;21086;-49
2021/07/19 03:00:56;;;;;;;14.43;9.30;;;;;;;31.75;49.40;100742.08;1622192;87;21120;-51
2021/07/19 03:03:28;;;;;;;18.85;9.15;;;;;;;31.74;49.44;100743.08;1627089;88;21086;-51
2021/07/19 03:06:04;;;;;;;13.03;9.05;;;;;;;31.73;49.23;100741.41;1621178;88;21126;-48
2021/07/19 03:08:37;;;;;;;13.68;9.55;;;;;;;31.73;49.09;100748.14;1535314;92;21084;-50
2021/07/19 03:11:11;;;;;;;12.33;8.50;;;;;;;31.71;49.15;100752.84;1511941;93;21094;-53
2021/07/19 03:13:39;;;;;;;11.78;8.60;;;;;;;31.71;49.21;100756.88;1488371;95;21678;-49
2021/07/19 03:16:06;;;;;;;13.32;9.20;;;;;;;31.69;49.29;100758.06;1493972;94;21616;-48
2021/07/19 03:18:39;;;;;;;14.85;9.50;;;;;;;31.68;49.44;100761.24;1493130;94;21091;-47
2021/07/19 03:21:06;;;;;;;10.93;9.18;;;;;;;31.70;49.68;100759.22;1508112;93;21604;-48
2021/07/19 03:23:36;;;;;;;12.50;10.03;;;;;;;31.70;49.58;100760.57;1508445;94;21142;-49
2021/07/19 03:26:02;;;;;;;14.93;9.93;;;;;;;31.70;49.29;100757.88;1509827;94;21605;-48
2021/07/19 03:28:29;;;;;;;14.33;10.20;;;;;;;31.69;49.20;100768.81;1495488;95;21130;-49
2021/07/19 03:30:58;;;;;;;15.13;9.93;;;;;;;31.67;49.23;100763.61;1488326;95;21098;-47
2021/07/19 03:33:24;;;;;;;12.82;9.55;;;;;;;31.67;49.20;100768.14;1486661;96;21087;-47
2021/07/19 03:35:54;;;;;;;15.25;9.00;;;;;;;31.66;49.36;100768.64;1497089;95;21556;-48
2021/07/19 03:38:21;;;;;;;13.88;9.48;;;;;;;31.66;49.45;100767.80;1490178;95;21102;-47
2021/07/19 03:40:55;;;;;;;25.92;9.65;;;;;;;31.70;49.51;100764.61;1476400;95;21089;-51
2021/07/19 03:43:22;;;;;;;18.17;9.83;;;;;;;31.79;49.26;100770.83;1473670;96;21081;-49
2021/07/19 03:45:50;;;;;;;16.05;9.78;;;;;;;31.90;49.02;100766.45;1502286;94;21140;-48
2021/07/19 03:48:19;;;;;;;10.32;8.58;;;;;;;32.14;48.83;100763.75;1539986;91;21056;-49
2021/07/19 03:50:47;;;;;;;22.73;10.25;;;;;;;32.50;48.09;100766.89;1561386;91;21061;-48
2021/07/19 03:53:13;;;;;;;45.92;13.75;;;;;;;32.90;47.09;100759.95;1552979;91;21131;-49
2021/07/19 03:55:43;;;;;;;13.20;9.63;;;;;;;33.29;46.06;100770.19;1562705;90;21146;-49
2021/07/19 03:58:13;;;;;;;65.80;13.70;;;;;;;33.59;45.53;100774.70;1570953;90;21075;-48
2021/07/19 04:00:42;;;;;;;86.82;14.83;;;;;;;33.82;45.21;100776.56;1584787;90;21564;-47
2021/07/19 04:03:22;;;;;;;22.95;10.18;;;;;;;34.00;44.44;100774.39;1566369;91;21033;-45
2021/07/19 04:05:55;;;;;;;16.17;10.90;;;;;;;34.12;44.04;100774.27;1574211;90;21077;-47
2021/07/19 04:08:19;;;;;;;10.82;9.73;;;;;;;34.21;43.75;100784.78;1594381;87;21147;-50
2021/07/19 04:10:49;;;;;;;22.45;10.18;;;;;;;34.27;43.36;100784.58;1608037;87;21127;-49
2021/07/19 04:13:17;;;;;;;12.07;9.85;;;;;;;34.22;43.47;100784.28;1571964;89;21064;-48
2021/07/19 04:15:46;;;;;;;13.35;9.23;;;;;;;34.10;43.68;100783.06;1597592;88;21020;-47
2021/07/19 04:18:14;;;;;;;14.43;9.53;;;;;;;33.97;43.86;100788.20;1629287;87;21059;-50
2021/07/19 04:20:49;;;;;;;15.63;10.45;;;;;;;33.82;44.30;100791.41;1627837;87;21055;-50
2021/07/19 04:23:16;;;;;;;12.07;10.72;;;;;;;33.65;44.71;100792.86;1617102;88;21018;-48
2021/07/19 04:25:47;;;;;;;20.43;10.35;;;;;;;33.50;44.90;100796.55;1615866;88;21558;-48
2021/07/19 04:28:21;;;;;;;12.30;9.60;;;;;;;33.37;45.42;100788.16;1595000;88;21074;-48
2021/07/19 04:30:49;;;;;;;11.38;9.95;;;;;;;33.22;45.60;100792.13;1615762;87;21143;-48
2021/07/19 04:33:17;;;;;;;14.23;10.53;;;;;;;33.10;46.03;100789.52;1614178;88;21054;-48
2021/07/19 04:35:48;;;;;;;15.23;11.83;;;;;;;32.98;46.42;100794.98;1614652;87;21022;-48
2021/07/19 04:38:21;;;;;;;15.00;11.30;;;;;;;32.87;46.70;100799.41;1614624;88;21058;-48
2021/07/19 04:40:51;;;;;;;15.95;11.40;;;;;;;32.77;47.12;100792.86;1614304;88;21050;-48
2021/07/19 04:43:18;;;;;;;13.00;11.35;;;;;;;32.69;47.26;100797.44;1601589;88;21050;-45
2021/07/19 04:45:46;;;;;;;23.25;11.97;;;;;;;32.62;47.45;100801.33;1617064;88;21570;-51
2021/07/19 04:48:14;;;;;;;17.90;11.00;;;;;;;32.58;47.48;100810.77;1614424;88;21026;-49
2021/07/19 04:50:41;;;;;;;15.68;10.45;;;;;;;32.54;47.68;100804.05;1615629;88;21095;-48
2021/07/19 04:53:09;;;;;;;14.07;10.38;;;;;;;32.53;47.88;100801.55;1616410;88;21093;-46
2021/07/19 04:55:38;;;;;;;16.65;11.48;;;;;;;32.49;47.75;100801.06;1617100;88;21086;-47
2021/07/19 04:58:06;;;;;;;17.15;11.25;;;;;;;32.46;47.99;100797.88;1575851;88;21085;-48
2021/07/19 05:00:34;;;;;;;15.25;10.98;;;;;;;32.45;48.04;100802.38;1616657;87;21578;-47
2021/07/19 05:03:01;;;;;;;15.88;11.08;;;;;;;32.44;48.26;100799.87;1620074;88;21070;-46
2021/07/19 05:05:28;;;;;;;12.30;11.08;;;;;;;32.42;48.25;100797.33;1600474;88;21578;-47
2021/07/19 05:07:55;;;;;;;14.63;11.33;;;;;;;32.42;48.31;100802.72;1616804;88;21114;-47
2021/07/19 05:10:23;;;;;;;18.98;11.20;;;;;;;32.44;48.33;100803.91;1616397;88;21030;-49
2021/07/19 05:12:51;;;;;;;16.05;12.07;;;;;;;32.44;48.42;100801.22;1614922;88;21006;-46
2021/07/19 05:15:18;;;;;;;12.30;10.78;;;;;;;32.46;48.57;100805.96;1616435;88;21585;-48
2021/07/19 05:17:45;;;;;;;18.15;11.78;;;;;;;32.49;48.68;100812.33;1612059;88;21218;-46
2021/07/19 05:20:14;;;;;;;20.68;12.50;;;;;;;32.54;48.68;100820.22;1619993;88;21596;-47
2021/07/19 05:22:52;;;;;;;14.83;11.20;;;;;;;32.63;48.55;100815.65;1614194;88;20990;-46
2021/07/19 05:25:25;;;;;;;14.90;11.97;;;;;;;32.72;48.40;100811.92;1614710;88;21078;-46
2021/07/19 05:28:04;;;;;;;17.30;12.30;;;;;;;32.83;48.17;100815.06;1614522;88;21510;-47
2021/07/19 05:30:31;;;;;;;30.15;14.53;;;;;;;32.93;47.78;100811.33;1614540;88;21049;-46
2021/07/19 05:32:58;;;;;;;15.65;11.90;;;;;;;33.02;47.65;100809.78;1616537;88;21061;-46
2021/07/19 05:35:24;;;;;;;20.82;12.00;;;;;;;33.08;47.59;100805.03;1617185;88;21102;-46
2021/07/19 05:37:51;;;;;;;16.25;12.43;;;;;;;33.15;47.57;100806.02;1613602;88;21082;-48
2021/07/19 05:40:19;;;;;;;14.03;11.20;;;;;;;33.22;47.31;100804.80;1610897;88;21038;-48
2021/07/19 05:42:46;;;;;;;13.35;11.90;;;;;;;33.29;47.34;100806.59;1614049;88;21553;-47
2021/07/19 05:45:14;;;;;;;20.15;11.85;;;;;;;33.36;47.42;100807.58;1614607;88;21050;-49
2021/07/19 05:47:41;;;;;;;12.98;11.60;;;;;;;33.44;47.12;100807.52;1616004;88;21529;-47
2021/07/19 05:50:10;;;;;;;13.53;12.18;;;;;;;33.52;46.89;100808.84;1617105;88;21050;-49
2021/07/19 05:52:36;;;;;;;16.10;11.60;;;;;;;33.58;46.98;100805.42;1616973;88;21553;-47
2021/07/19 05:55:05;;;;;;;20.05;12.63;;;;;;;33.65;46.91;100805.55;1608849;88;21530;-50
2021/07/19 05:57:32;;;;;;;14.07;12.07;;;;;;;33.74;46.83;100806.33;1616347;88;21542;-47
2021/07/19 05:59:59;;;;;;;17.05;12.95;;;;;;;33.83;46.65;100804.71;1615063;88;21050;-47
2021/07/19 06:02:27;;;;;;;18.73;13.28;;;;;;;33.94;46.57;100807.48;1605804;88;21039;-49
2021/07/19 06:04:54;;;;;;;13.70;12.30;;;;;;;34.06;46.35;100808.75;1616887;88;21042;-54
2021/07/19 06:07:21;;;;;;;17.12;11.95;;;;;;;34.16;46.23;100806.63;1616322;88;21509;-48
2021/07/19 06:09:48;;;;;;;16.12;11.97;;;;;;;34.27;46.21;100807.53;1614665;88;21554;-49
2021/07/19 06:12:14;;;;;;;16.35;12.50;;;;;;;34.38;46.04;100811.11;1616499;88;21026;-51
2021/07/19 06:14:42;;;;;;;15.58;12.18;;;;;;;34.45;45.88;100810.70;1617132;88;21077;-49
2021/07/19 06:17:08;;;;;;;20.20;12.53;;;;;;;34.53;45.83;100813.34;1605510;88;21054;-47
2021/07/19 06:19:35;;;;;;;15.35;12.07;;;;;;;34.62;45.74;100814.94;1616225;88;21026;-46
2021/07/19 06:22:03;;;;;;;13.90;12.43;;;;;;;34.70;45.79;100821.59;1614611;88;21050;-51
2021/07/19 06:24:30;;;;;;;33.38;14.63;;;;;;;34.79;45.84;100815.05;1616103;88;21030;-51
2021/07/19 06:26:57;;;;;;;18.77;12.65;;;;;;;34.86;45.66;100810.58;1616799;88;21114;-53
2021/07/19 06:29:23;;;;;;;14.80;13.35;;;;;;;34.90;45.62;100807.82;1617184;88;21002;-48
2021/07/19 06:31:50;;;;;;;16.48;12.50;;;;;;;34.93;45.59;100815.53;1616335;88;21538;-46
2021/07/19 06:34:17;;;;;;;20.43;12.25;;;;;;;34.94;45.82;100817.73;1614121;88;21094;-47
2021/07/19 06:36:45;;;;;;;16.12;11.53;;;;;;;34.94;46.03;100821.28;1614431;88;21094;-49
2021/07/19 06:39:12;;;;;;;20.77;12.55;;;;;;;34.96;46.44;100817.88;1602368;88;21070;-47
2021/07/19 06:41:38;;;;;;;24.18;11.20;;;;;;;34.97;46.60;100816.83;1613285;88;21054;-47
2021/07/19 06:44:06;;;;;;;13.75;10.15;;;;;;;34.98;47.08;100818.56;1619685;87;21046;-52
2021/07/19 06:46:33;;;;;;;20.88;9.90;;;;;;;34.99;47.21;100817.55;1608807;88;21078;-51
2021/07/19 06:49:00;;;;;;;14.45;10.95;;;;;;;35.01;47.24;100814.14;1605350;88;21486;-47
2021/07/19 06:51:27;;;;;;;16.32;10.43;;;;;;;35.05;47.21;100815.44;1615845;87;21038;-50
2021/07/19 06:53:54;;;;;;;16.48;10.60;;;;;;;35.08;47.14;100814.19;1616028;88;21042;-47
2021/07/19 06:56:20;;;;;;;13.68;12.05;;;;;;;35.11;47.17;100809.27;1605169;88;21077;-46
2021/07/19 06:58:47;;;;;;;15.68;10.08;;;;;;;35.12;47.26;100813.63;1607869;88;21010;-47
2021/07/19 07:01:14;;;;;;;18.37;11.30;;;;;;;35.12;47.54;100814.98;1606876;88;21054;-47
2021/07/19 07:03:41;;;;;;;15.83;10.80;;;;;;;35.12;47.88;100814.98;1614718;88;21113;-48
2021/07/19 07:06:09;;;;;;;20.60;13.83;;;;;;;35.13;48.25;100813.97;1617218;88;21042;-46
2021/07/19 07:08:36;;;;;;;12.47;11.18;;;;;;;35.18;48.41;100810.16;1613544;88;21013;-50
2021/07/19 07:11:02;;;;;;;20.30;11.40;;;;;;;35.22;48.55;100807.09;1612131;88;21061;-48
2021/07/19 07:13:29;;;;;;;15.95;12.10;;;;;;;35.27;48.61;100815.45;1618648;88;21531;-49
2021/07/19 07:15:56;;;;;;;13.83;10.40;;;;;;;35.34;48.54;100813.66;1605488;88;21605;-49
2021/07/19 07:18:22;;;;;;;12.07;10.88;;;;;;;35.38;48.49;100816.31;1616899;88;21061;-49
2021/07/19 07:20:49;;;;;;;12.25;10.18;;;;;;;35.41;48.52;100811.34;1615881;88;21034;-49
2021/07/19 07:23:16;;;;;;;15.13;10.55;;;;;;;35.48;48.10;100820.92;1615149;88;21471;-49
2021/07/19 07:25:42;;;;;;;11.70;10.40;;;;;;;35.51;47.78;100821.36;1616307;88;21102;-48
2021/07/19 07:28:09;;;;;;;12.00;10.80;;;;;;;35.54;47.74;100823.70;1612402;88;21119;-49
2021/07/19 07:30:36;;;;;;;11.97;10.72;;;;;;;35.58;47.69;100821.44;1619108;88;21050;-48
2021/07/19 07:33:04;;;;;;;46.68;13.20;;;;;;;35.63;47.36;100821.70;1615704;88;21002;-48
2021/07/19 07:35:31;;;;;;;16.57;11.15;;;;;;;35.66;47.46;100821.30;1614290;88;21055;-49
2021/07/19 07:37:57;;;;;;;16.80;11.95;;;;;;;35.69;47.67;100819.58;1609253;88;21053;-49
2021/07/19 07:40:24;;;;;;;14.20;11.30;;;;;;;35.72;47.96;100820.52;1613526;88;21065;-50
2021/07/19 07:42:51;;;;;;;18.10;10.68;;;;;;;35.76;47.98;100824.52;1616775;88;21061;-50
2021/07/19 07:45:18;;;;;;;16.65;13.18;;;;;;;35.77;48.03;100827.56;1617176;88;21026;-50
2021/07/19 07:47:45;;;;;;;14.70;11.60;;;;;;;35.77;48.16;100822.98;1615678;88;21066;-49
2021/07/19 07:50:12;;;;;;;15.10;11.08;;;;;;;35.78;48.21;100828.71;1614539;88;21569;-50
2021/07/19 07:52:40;;;;;;;14.28;11.28;;;;;;;35.79;48.25;100821.44;1614553;88;21069;-49
2021/07/19 07:55:09;;;;;;;11.97;10.32;;;;;;;35.80;47.92;100829.36;1614509;88;21051;-50
2021/07/19 07:57:36;;;;;;;40.00;13.65;;;;;;;35.84;48.00;100825.22;1616404;87;21648;-49
2021/07/19 08:00:15;;;;;;;11.20;9.78;;;;;;;35.88;48.08;100825.70;1617488;88;21089;-50
2021/07/19 08:02:42;;;;;;;17.05;12.05;;;;;;;35.91;47.79;100829.34;1565678;90;21134;-50
2021/07/19 08:05:11;;;;;;;14.78;10.60;;;;;;;35.94;47.59;100834.42;1565933;91;21107;-50
2021/07/19 08:07:37;;;;;;;16.37;10.08;;;;;;;35.95;47.27;100827.95;1565593;91;21072;-50
2021/07/19 08:10:06;;;;;;;11.57;10.13;;;;;;;35.97;47.13;100831.30;1565688;91;21128;-50
2021/07/19 08:12:33;;;;;;;12.78;10.00;;;;;;;36.00;46.71;100829.58;1542843;91;21551;-50
2021/07/19 08:15:03;;;;;;;13.03;10.30;;;;;;;36.02;46.37;100832.92;1566337;91;21091;-49
2021/07/19 08:17:31;;;;;;;29.37;15.48;;;;;;;36.02;46.35;100834.28;1567934;91;21079;-52
2021/07/19 08:19:58;;;;;;;12.03;10.78;;;;;;;36.01;46.26;100832.59;1561734;90;21085;-47
2021/07/19 08:22:26;;;;;;;17.92;10.90;;;;;;;36.02;45.94;100832.08;1545642;91;21590;-52
2021/07/19 08:24:53;;;;;;;14.38;10.93;;;;;;;36.00;46.19;100831.44;1523055;93;21113;-47
2021/07/19 08:27:19;;;;;;;14.23;9.58;;;;;;;35.98;46.53;100832.45;1567810;91;21006;-51
2021/07/19 08:29:49;;;;;;;11.18;10.08;;;;;;;35.96;46.85;100831.00;1533855;92;21046;-50
2021/07/19 08:32:16;;;;;;;10.85;9.85;;;;;;;35.93;46.61;100824.58;1513046;94;21229;-47
2021/07/19 08:34:46;;;;;;;10.78;9.70;;;;;;;35.93;46.69;100828.63;1537246;93;21099;-48
2021/07/19 08:37:13;;;;;;;11.83;10.25;;;;;;;35.94;47.23;100824.94;1523766;93;21074;-50
2021/07/19 08:39:41;;;;;;;16.00;10.20;;;;;;;35.97;47.41;100824.53;1563464;87;21120;-55
2021/07/19 08:42:13;;;;;;;14.90;10.03;;;;;;;36.01;47.45;100824.46;1620284;87;21052;-49
2021/07/19 08:44:41;;;;;;;12.65;9.30;;;;;;;36.04;47.96;100827.30;1547524;91;21095;-48
2021/07/19 08:47:14;;;;;;;14.07;10.30;;;;;;;36.09;47.21;100826.21;1549233;92;21480;-48
2021/07/19 08:49:41;;;;;;;12.78;9.45;;;;;;;36.13;47.18;100828.30;1552858;92;21096;-49
2021/07/19 08:52:08;;;;;;;10.80;9.73;;;;;;;36.18;47.46;100831.27;1546736;91;21625;-49
2021/07/19 08:54:36;;;;;;;11.65;10.48;;;;;;;36.20;47.12;100827.84;1550280;92;21077;-50
2021/07/19 08:57:04;;;;;;;11.38;10.15;;;;;;;36.23;47.28;100830.14;1557431;92;21158;-48
2021/07/19 08:59:32;;;;;;;10.38;9.28;;;;;;;36.25;46.91;100826.72;1530365;93;21077;-48
2021/07/19 09:02:01;;;;;;;12.80;9.83;;;;;;;36.27;47.06;100825.19;1513945;94;21235;-48
2021/07/19 09:04:27;;;;;;;10.82;9.73;;;;;;;36.27;47.62;100823.84;1502140;94;21107;-54
2021/07/19 09:06:56;;;;;;;13.58;10.90;;;;;;;36.25;48.15;100825.37;1516561;92;21615;-48
2021/07/19 09:09:32;;;;;;;11.85;10.43;;;;;;;36.22;48.78;100816.30;1536776;93;21077;-48
2021/07/19 09:12:03;;;;;;;11.45;10.32;;;;;;;36.21;49.06;100818.67;1555164;91;21046;-49
2021/07/19 09:14:31;;;;;;;11.00;9.55;;;;;;;36.20;49.17;100818.37;1527544;93;21644;-52
2021/07/19 09:16:58;;;;;;;10.00;8.93;;;;;;;36.19;49.56;100818.03;1550150;92;20999;-51
2021/07/19 09:19:26;;;;;;;10.65;9.28;;;;;;;36.18;49.34;100816.37;1550717;92;21077;-48
2021/07/19 09:22:01;;;;;;;19.37;17.40;;;;;;;36.18;49.53;100821.80;1551519;92;21052;-49
2021/07/19 09:27:00;;;;;;;21.02;18.87;;;;;;;36.18;49.13;100818.23;1535599;93;21040;-48
2021/07/19 09:29:28;;;;;;;16.75;14.98;;;;;;;36.16;48.89;100825.22;1531822;93;21164;-49
2021/07/19 09:31:58;;;;;;;106.03;93.42;;;;;;;36.15;49.00;100818.11;1531133;93;21642;-52
2021/07/19 09:34:29;;;;;;;29.55;26.35;;;;;;;36.17;48.96;100818.75;1531342;93;21092;-48
2021/07/19 09:37:12;;;;;;;18.50;16.48;;;;;;;36.21;48.38;100825.45;1531022;93;21111;-51
2021/07/19 09:39:50;;;;;;;15.50;13.88;;;;;;;36.27;48.28;100829.26;1527151;93;21500;-47
2021/07/19 09:42:19;;;;;;;12.55;11.25;;;;;;;36.30;47.56;100831.05;1536178;92;21100;-48
2021/07/19 09:44:58;;;;;;;15.30;13.65;;;;;;;36.31;47.06;100832.73;1530032;93;21180;-48
2021/07/19 09:47:40;;;;;;;17.00;12.30;;;;;;;36.31;46.85;100832.73;1526685;93;21093;-49
2021/07/19 09:50:13;;;;;;;52.35;45.88;;;;;;;36.28;46.88;100834.47;1526472;94;21174;-48
2021/07/19 09:52:41;;;;;;;59.75;54.03;;;;;;;36.24;46.99;100833.19;1482862;96;22462;-50
2021/07/19 09:55:14;;;;;;;34.80;31.37;;;;;;;36.17;47.30;100836.36;1483212;95;21112;-48
2021/07/19 09:57:45;;;;;;;16.40;14.85;;;;;;;36.13;47.23;100835.08;1432439;98;21606;-48
2021/07/19 10:00:12;;;;;;;15.43;13.48;;;;;;;36.11;47.03;100834.44;1429689;99;21143;-50
2021/07/19 10:02:40;;;;;;;11.65;10.43;;;;;;;36.09;47.18;100837.86;1418727;99;21101;-48
2021/07/19 10:05:09;;;;;;;11.35;9.75;;;;;;;36.07;47.33;100833.16;1432205;99;21110;-49
2021/07/19 10:07:45;;;;;;;26.30;23.25;;;;;;;36.07;47.49;100830.45;1430442;99;21675;-48
2021/07/19 10:10:12;;;;;;;16.00;14.05;;;;;;;36.09;47.60;100837.05;1413208;100;21188;-48
2021/07/19 10:12:41;;;;;;;15.32;11.70;;;;;;;36.10;47.53;100828.72;1413048;100;21226;-47
2021/07/19 10:15:11;;;;;;;33.53;29.85;;;;;;;36.13;47.47;100830.20;1400174;100;21217;-48
2021/07/19 10:17:37;;;;;;;36.15;29.18;;;;;;;36.17;47.36;100830.94;1410862;100;21148;-46
2021/07/19 10:20:06;;;;;;;14.65;13.18;;;;;;;36.20;46.61;100829.20;1411681;100;21136;-49
2021/07/19 10:22:32;;;;;;;52.55;42.15;;;;;;;36.23;46.73;100824.73;1420732;100;21096;-48
2021/07/19 10:24:59;;;;;;;26.35;21.00;;;;;;;36.24;46.72;100830.48;1444367;96;21132;-48
2021/07/19 10:27:27;;;;;;;35.33;26.62;;;;;;;36.26;46.58;100825.70;1445086;98;21081;-49
2021/07/19 10:29:55;;;;;;;17.82;12.18;;;;;;;36.26;46.73;100828.92;1447214;97;21179;-48
2021/07/19 10:32:23;;;;;;;29.07;22.55;;;;;;;36.20;46.63;100830.56;1465984;96;21131;-48
2021/07/19 10:34:53;;;;;;;13.05;10.65;;;;;;;36.16;47.05;100827.92;1502140;91;21041;-48
2021/07/19 10:37:31;;;;;;;11.88;8.55;;;;;;;36.11;46.60;100826.31;1572744;87;21481;-52
2021/07/19 10:39:58;;;;;;;11.25;8.63;;;;;;;36.08;47.02;100821.30;1534646;92;21128;-48
2021/07/19 10:42:35;;;;;;;11.05;8.03;;;;;;;36.05;47.45;100825.74;1541987;92;21148;-47
2021/07/19 10:45:15;;;;;;;11.83;9.30;;;;;;;36.04;46.83;100826.80;1537523;92;21151;-48
2021/07/19 10:47:56;;;;;;;11.20;8.65;;;;;;;36.04;47.17;100825.44;1491061;95;21596;-48
2021/07/19 10:50:26;;;;;;;11.48;8.68;;;;;;;36.06;47.61;100828.78;1424459;98;21604;-47
2021/07/19 10:52:55;;;;;;;10.72;8.18;;;;;;;36.07;47.08;100827.73;1446186;98;21607;-48
2021/07/19 10:55:31;;;;;;;8.53;7.72;;;;;;;36.08;46.88;100824.01;1427979;96;21123;-47
2021/07/19 10:58:16;;;;;;;13.32;8.75;;;;;;;36.10;46.56;100824.66;1438288;98;21592;-49
2021/07/19 11:00:45;;;;;;;9.45;8.25;;;;;;;36.13;46.13;100824.23;1431375;98;21545;-48
2021/07/19 11:03:16;;;;;;;15.13;8.15;;;;;;;36.14;45.74;100824.58;1435833;98;21325;-49
2021/07/19 11:05:45;;;;;;;9.55;8.08;;;;;;;36.15;45.49;100821.36;1447495;98;21098;-47
2021/07/19 11:08:26;;;;;;;9.65;8.63;;;;;;;36.13;45.56;100813.95;1446235;98;21323;-47
2021/07/19 11:10:57;;;;;;;8.60;7.42;;;;;;;36.09;45.74;100808.60;1446310;97;21076;-47
2021/07/19 11:13:32;;;;;;;9.28;8.30;;;;;;;36.03;45.93;100808.00;1445942;98;21138;-48
2021/07/19 11:16:00;;;;;;;14.23;8.55;;;;;;;35.99;46.44;100804.86;1454529;97;21653;-47
2021/07/19 11:18:30;;;;;;;11.57;8.88;;;;;;;35.98;46.20;100801.84;1433195;98;21146;-48
2021/07/19 11:20:59;;;;;;;8.68;7.87;;;;;;;35.99;46.48;100800.80;1441269;98;21617;-47
2021/07/19 11:23:30;;;;;;;10.05;7.40;;;;;;;36.00;46.04;100802.48;1475554;96;21769;-48
2021/07/19 11:25:59;;;;;;;15.75;8.28;;;;;;;36.03;46.07;100802.08;1429005;99;21572;-47